Latest Coastal Weather Observations for Wynyard

IDT60701

Issued at 1:22 pm EDT Tuesday 28 March 2017 (issued every 10 minutes, with the page automatically refreshed every 10 minutes)

About coastal observations | Map of coastal stations | Coastal observations for TAS | Marine services | Other Formats
Station Details ID: 091107 Name: WYNYARD AIRPORT Lat: -41.00 Lon: 145.73 Height: 12.0 m
Data from the previous 72 hours. | See also: Recent months at Wynyard
Date/Time
EDT
Temp
°C
Wind Pressure Rain since
9am
mm
Weather Cloud Vis
km
Sea
Height
m
Swell
Dir  Spd
kts
Gust
kts
hPa Trend Height
m
Period
s
Dir
28/01:00pm 17.2 W 15 22 1010.1 - 0.0 - Partly cloudy 10 - - - -
28/12:47pm 18.3 W 15 26 1010.2 - 0.0 - Partly cloudy 10 - - - -
28/12:30pm 17.8 W 15 20 1010.5 - 0.0 - Partly cloudy 10 - - - -
28/12:00pm 17.3 WNW 9 13 1010.7 - 0.0 - Mostly cloudy 10 - - - -
28/11:30am 17.4 NW 11 15 1010.8 - 0.0 - Partly cloudy 10 - - - -
28/11:00am 17.2 W 10 16 1010.9 - 0.0 - Partly cloudy 10 - - - -
28/10:30am 16.6 WNW 10 15 1010.9 - 0.0 - Partly cloudy 10 - - - -
28/10:00am 16.1 W 10 13 1010.7 - 0.0 - Cloudy 10 - - - -
28/09:30am 16.1 W 11 13 1010.5 - 0.0 - Partly cloudy 10 - - - -
28/09:00am 14.7 W 12 16 1010.3 - 8.2 - Cloudy 10 - - - -
28/08:30am 14.5 W 9 12 1010.3 - 8.2 - Partly cloudy 10 - - - -
28/08:00am 13.2 W 9 11 1009.7 - 8.2 - Partly cloudy 10 - - - -
28/07:30am 13.3 W 10 14 1009.8 - 8.2 - Partly cloudy 7 - - - -
28/07:00am 11.2 WSW 4 5 1009.4 - 8.2 - - 10 - - - -
28/06:36am 12.2 W 7 9 1009.3 - 8.2 - Partly cloudy 9 - - - -
28/06:30am 12.6 W 9 11 1009.3 - 8.2 - Partly cloudy 9 - - - -
28/06:13am 12.6 SSW 5 13 1009.4 - 8.2 - Partly cloudy 5 - - - -
28/06:00am 11.5 S 3 4 1009.3 - 8.0 - Mostly cloudy 10 - - - -
28/05:30am 11.3 SW 4 5 1009.1 - 8.0 - Partly cloudy 10 - - - -
28/05:00am 9.8 SSW 1 3 1008.8 - 8.0 - Partly cloudy 8 - - - -
28/04:30am 9.6 SW 3 4 1008.7 - 8.0 - Partly cloudy 9 - - - -
28/04:00am 10.2 SW 1 4 1008.6 - 8.0 - Partly cloudy 9 - - - -
28/03:30am 9.8 CALM 0 3 1008.5 - 8.0 - - 8 - - - -
28/03:00am 10.2 SSW 2 4 1008.7 - 8.0 - - 8 - - - -
28/02:30am 10.8 S 3 4 1008.8 - 8.0 - Partly cloudy 9 - - - -
28/02:00am 11.3 WSW 3 6 1008.8 - 8.0 - Partly cloudy 9 - - - -
28/01:30am 12.7 NW 6 8 1008.7 - 8.0 - Partly cloudy 10 - - - -
28/01:00am 13.2 WNW 9 11 1008.5 - 8.0 - Partly cloudy 10 - - - -
28/12:30am 13.2 W 10 13 1008.5 - 8.0 - Partly cloudy 10 - - - -
28/12:00am 12.7 WNW 9 10 1008.3 - 8.0 - Cloudy 9 - - - -
 
Date/Time
EDT
Temp
°C
Wind Pressure Rain since
9am
mm
Weather Cloud Vis
km
Sea
Height
m
Swell
Dir  Spd
kts
Gust
kts
hPa Trend Height
m
Period
s
Dir
27/11:30pm 12.7 WNW 8 9 1008.3 - 8.0 - Partly cloudy 10 - - - -
27/11:00pm 13.1 W 8 11 1008.4 - 8.0 - Partly cloudy 9 - - - -
27/10:30pm 14.3 WNW 9 13 1008.3 - 8.0 - Partly cloudy 10 - - - -
27/10:00pm 14.4 WNW 9 12 1008.0 - 8.0 - Partly cloudy 10 - - - -
27/09:30pm 14.5 W 11 13 1007.6 - 8.0 - Partly cloudy 10 - - - -
27/09:00pm 15.2 WNW 16 23 1007.1 - 8.0 - Cloudy 10 - - - -
27/08:30pm 15.2 WNW 13 20 1006.6 - 8.0 - Partly cloudy 10 - - - -
27/08:00pm 15.4 W 17 25 1006.3 - 8.0 - Partly cloudy 10 - - - -
27/07:39pm 15.7 W 15 28 1005.9 - 8.0 - Partly cloudy 7 - - - -
27/07:30pm 16.0 WNW 13 16 1005.7 - 8.0 - Partly cloudy 10 - - - -
27/07:00pm 16.0 W 12 16 1005.8 - 8.0 - Partly cloudy 9 - - - -
27/06:30pm 16.4 W 11 17 1005.2 - 7.6 - Partly cloudy 10 - - - -
27/06:00pm 16.7 WNW 12 15 1005.0 - 7.6 - Partly cloudy 10 - - - -
27/05:30pm 16.4 WNW 13 15 1005.0 - 7.6 - Partly cloudy 10 - - - -
27/05:00pm 16.9 WNW 13 18 1004.7 - 7.6 - Partly cloudy 10 - - - -
27/04:30pm 15.7 WNW 11 15 1004.7 - 7.6 - Partly cloudy 10 - - - -
27/04:00pm 14.7 WNW 13 16 1004.7 - 7.6 - Partly cloudy 10 - - - -
27/03:30pm 14.3 WNW 17 24 1004.0 - 7.4 - Partly cloudy 8 - - - -
27/03:21pm 14.7 WNW 16 23 1004.6 - 6.8 - Partly cloudy 8 - - - -
27/03:00pm 15.0 W 14 21 1003.3 - 5.8 Rain Cloudy 10 - - - -
27/02:48pm 15.4 W 21 29 1003.6 - 5.4 - Partly cloudy 8 - - - -
27/02:37pm 16.1 W 19 28 1003.4 - 5.0 - Partly cloudy 5 - - - -
27/02:30pm 16.6 W 21 34 1003.1 - 4.6 - Partly cloudy 8 - - - -
27/02:05pm 18.0 W 17 27 1003.5 - 4.4 - Partly cloudy 10 - - - -
27/02:00pm 17.9 W 17 23 1002.9 - 4.4 - Partly cloudy 10 - - - -
27/01:44pm 17.8 W 16 25 1003.2 - 4.4 - Partly cloudy 10 - - - -
27/01:30pm 18.4 W 16 33 1003.8 - 4.0 - Partly cloudy 3 - - - -
27/01:26pm 18.9 NNW 10 28 1003.9 - 4.0 - Partly cloudy 3 - - - -
27/01:21pm 19.4 NNE 6 8 1002.7 - 2.8 - Partly cloudy 5 - - - -
27/01:20pm 19.5 NE 6 8 1002.6 - 2.6 - Partly cloudy 6 - - - -
27/01:00pm 19.4 ENE 6 12 1002.0 - 2.2 - Partly cloudy 10 - - - -
27/12:48pm 19.5 E 7 11 1002.0 - 2.2 - Partly cloudy 10 - - - -
27/12:30pm 19.7 E 9 13 1001.9 - 2.2 - Partly cloudy 10 - - - -
27/12:00pm 19.8 E 11 18 1002.0 - 2.2 - Cloudy 10 - - - -
27/11:30am 19.2 ESE 12 16 1002.2 - 2.2 - Cloudy 10 - - - -
27/11:00am 19.0 ESE 17 22 1002.1 - 2.2 - Partly cloudy 10 - - - -
27/10:54am 18.9 E 15 21 1002.2 - 2.2 - Partly cloudy 8 - - - -
27/10:48am 18.9 ESE 15 23 1002.5 - 2.0 - Partly cloudy 8 - - - -
27/10:43am 19.0 ESE 15 20 1002.7 - 2.0 - Partly cloudy 6 - - - -
27/10:30am 19.2 SE 6 9 1004.8 - 1.2 - Cloudy 4 - - - -
27/10:26am 19.3 S 6 9 1005.0 - 0.8 - Cloudy 5 - - - -
27/10:14am 19.3 ESE 11 16 1004.7 - 0.0 - Cloudy 10 - - - -
27/10:00am 19.3 ESE 13 22 1002.7 - 0.0 - Cloudy 10 - - - -
27/09:30am 19.3 E 11 16 1003.2 - 0.0 - Cloudy 10 - - - -
27/09:00am 19.1 E 11 17 1004.2 - 0.0 - Mostly cloudy 10 - - - -
27/08:30am 19.1 E 10 15 1004.6 - 0.0 - Cloudy 10 - - - -
27/08:00am 19.0 E 10 16 1005.2 - 0.0 - Cloudy 10 - - - -
27/07:30am 18.9 E 10 14 1005.6 - 0.0 - Cloudy 10 - - - -
27/07:00am 18.9 E 8 13 1006.3 - 0.0 - Cloudy 10 - - - -
27/06:30am 18.8 E 10 14 1006.6 - 0.0 - Cloudy 10 - - - -
27/06:00am 18.8 E 10 15 1006.5 - 0.0 - Cloudy 10 - - - -
27/05:30am 18.7 E 9 13 1007.3 - 0.0 - Partly cloudy 10 - - - -
27/05:00am 18.7 ESE 12 16 1007.5 - 0.0 - Cloudy 10 - - - -
27/04:30am 18.8 E 10 14 1007.8 - 0.0 - Partly cloudy 10 - - - -
27/04:00am 18.9 E 9 13 1008.2 - 0.0 - Partly cloudy 10 - - - -
27/03:30am 18.8 E 9 13 1008.6 - 0.0 - Partly cloudy 10 - - - -
27/03:00am 18.7 E 10 16 1009.0 - 0.0 - Cloudy 10 - - - -
27/02:30am 18.6 E 8 13 1009.8 - 0.0 - Partly cloudy 10 - - - -
27/02:00am 18.6 E 9 13 1010.5 - 0.0 - Partly cloudy 10 - - - -
27/01:30am 18.7 ENE 9 13 1011.0 - 0.0 - Cloudy 10 - - - -
27/01:22am 18.7 ENE 8 13 1011.1 - 0.0 - Cloudy 10 - - - -
27/01:00am 18.7 ENE 9 13 1011.4 - 0.0 - Partly cloudy 10 - - - -
27/12:43am 18.7 ENE 8 13 1011.8 - 0.0 - Partly cloudy 10 - - - -
27/12:30am 18.7 ENE 8 12 1012.0 - 0.0 - Partly cloudy 10 - - - -
27/12:00am 18.6 E 8 13 1012.3 - 0.0 - Cloudy 10 - - - -
 
Date/Time
EDT
Temp
°C
Wind Pressure Rain since
9am
mm
Weather Cloud Vis
km
Sea
Height
m
Swell
Dir  Spd
kts
Gust
kts
hPa Trend Height
m
Period
s
Dir
26/11:30pm 18.5 E 7 10 1012.9 - 0.0 - Cloudy 10 - - - -
26/11:09pm 18.5 ENE 9 12 1013.2 - 0.0 - Partly cloudy 10 - - - -
26/11:03pm 18.5 ENE 9 13 1013.2 - 0.0 - Partly cloudy 10 - - - -
26/11:00pm 18.5 ENE 9 13 1013.2 - 0.0 - Partly cloudy 10 - - - -
26/10:43pm 18.5 ENE 7 11 1013.2 - 0.0 - Partly cloudy 10 - - - -
26/10:32pm 18.4 ENE 8 12 1013.2 - 0.0 - Cloudy 10 - - - -
26/10:30pm 18.4 ENE 9 12 1013.2 - 0.0 - Cloudy 10 - - - -
26/10:00pm 18.2 ENE 9 13 1013.4 - 0.0 - Partly cloudy 10 - - - -
26/09:30pm 18.2 ENE 7 10 1013.5 - 0.0 - Partly cloudy 10 - - - -
26/09:00pm 18.0 ENE 7 10 1013.4 - 0.0 - Cloudy 10 - - - -
26/08:30pm 17.7 E 4 7 1013.1 - 0.0 - Cloudy 10 - - - -
26/08:00pm 16.6 ESE 4 6 1013.1 - 0.0 - Partly cloudy 10 - - - -
26/07:46pm 17.1 E 3 5 1013.3 - 0.0 - Partly cloudy 10 - - - -
26/07:30pm 17.8 NE 4 5 1013.3 - 0.0 - Partly cloudy 10 - - - -
26/07:00pm 18.7 NE 5 6 1013.2 - 0.0 - - 10 - - - -
26/06:30pm 19.2 NE 5 7 1013.1 - 0.0 - - 10 - - - -
26/06:00pm 19.8 NE 6 7 1013.1 - 0.0 - - 10 - - - -
26/05:30pm 20.1 NNE 5 6 1013.1 - 0.0 - - 10 - - - -
26/05:00pm 20.7 NE 5 7 1013.0 - 0.0 - - 10 - - - -
26/04:30pm 20.7 NE 6 7 1013.1 - 0.0 - - 10 - - - -
26/04:00pm 20.7 NE 7 9 1013.3 - 0.0 - - 10 - - - -
26/03:30pm 20.9 NNE 7 9 1013.5 - 0.0 - - 10 - - - -
26/03:00pm 20.9 NNE 8 10 1013.5 - 0.0 - - 10 - - - -
26/02:30pm 21.6 NNE 6 8 1013.8 - 0.0 - - 10 - - - -
26/02:00pm 21.3 NE 6 9 1014.3 - 0.0 - - 10 - - - -
26/01:30pm 21.0 NNE 7 9 1014.6 - 0.0 - - 10 - - - -
26/01:00pm 20.6 NE 7 9 1014.9 - 0.0 - - 10 - - - -
26/12:30pm 20.3 NNE 7 9 1015.1 - 0.0 - - 10 - - - -
26/12:00pm 20.2 NNE 7 8 1015.3 - 0.0 - - 10 - - - -
26/11:30am 19.9 NNE 7 9 1015.5 - 0.0 - - 10 - - - -
26/11:00am 20.4 NNE 6 8 1015.6 - 0.0 - - 10 - - - -
26/10:30am 19.9 SW 1 5 1015.5 - 0.0 - - 10 - - - -
26/10:00am 18.5 NW 2 4 1015.5 - 0.0 - - 10 - - - -
26/09:30am 16.8 WNW 3 4 1015.2 - 0.0 - - 10 - - - -
26/09:00am 14.9 W 2 3 1014.9 - 1.0 - - 10 - - - -
26/08:30am 13.8 WNW 3 4 1014.9 - 1.0 - - 10 - - - -
26/08:00am 11.4 W 4 5 1014.8 - 1.0 - - - - - - -
26/07:49am 10.9 WNW 4 4 1014.7 - 1.0 - - 2 - - - -
26/07:30am 11.9 W 5 5 1014.7 - 1.0 - - - - - - -
26/07:00am 11.2 W 5 7 1014.2 - 1.0 - - 1 - - - -
26/06:59am 11.3 W 5 7 1014.2 - 1.0 - - 1 - - - -
26/06:36am 12.4 WNW 4 5 1013.7 - 1.0 - - 7 - - - -
26/06:30am 12.0 WNW 4 5 1013.6 - 1.0 - - 6 - - - -
26/06:26am 12.3 WNW 4 5 1013.6 - 1.0 - - 5 - - - -
26/06:08am 12.1 W 5 5 1013.5 - 1.0 - - 5 - - - -
26/06:00am 12.0 WNW 5 5 1013.4 - 1.0 - - 10 - - - -
26/05:30am 13.1 WNW 4 5 1013.0 - 1.0 - Partly cloudy 8 - - - -
26/05:00am 14.6 W 3 4 1012.8 - 1.0 - Cloudy 10 - - - -
26/04:30am 15.1 WSW 1 4 1013.0 - 1.0 - Cloudy 10 - - - -
26/04:00am 15.3 W 5 6 1013.1 - 1.0 - Cloudy 10 - - - -
26/03:30am 15.5 WNW 5 6 1013.3 - 1.0 - Cloudy 10 - - - -
26/03:00am 15.3 WNW 5 6 1013.5 - 1.0 - Cloudy 10 - - - -
26/02:30am 15.1 W 5 6 1013.7 - 1.0 - Cloudy 10 - - - -
26/02:00am 14.9 W 6 7 1013.3 - 1.0 - Cloudy 10 - - - -
26/01:30am 15.0 WSW 4 4 1013.2 - 1.0 - Cloudy 10 - - - -
26/01:00am 13.8 W 4 6 1013.6 - 1.0 - Partly cloudy 10 - - - -
26/12:30am 13.6 W 4 5 1013.7 - 1.0 - - 8 - - - -
26/12:00am 14.7 WNW 4 5 1013.6 - 1.0 - - 10 - - - -
 
Date/Time
EDT
Temp
°C
Wind Pressure Rain since
9am
mm
Weather Cloud Vis
km
Sea
Height
m
Swell
Dir  Spd
kts
Gust
kts
hPa Trend Height
m
Period
s
Dir
25/11:30pm 14.9 SW 6 8 1013.6 - 1.0 - - 10 - - - -
25/11:00pm 14.5 S 3 6 1013.4 - 1.0 - - 10 - - - -
25/10:30pm 15.1 S 3 5 1013.3 - 1.0 - - 10 - - - -
25/10:00pm 16.4 S 3 4 1013.2 - 1.0 - Partly cloudy 10 - - - -
25/09:30pm 17.0 S 3 4 1013.2 - 1.0 - Cloudy 10 - - - -
25/09:00pm 17.3 CALM 0 0 1013.0 - 1.0 - Cloudy 10 - - - -
25/08:30pm 17.6 SSE 4 5 1012.8 - 1.0 - Partly cloudy 10 - - - -
25/08:00pm 17.5 SE 4 5 1012.4 - 1.0 - Partly cloudy 10 - - - -
25/07:30pm 17.8 SSE 3 5 1012.2 - 1.0 - Partly cloudy 10 - - - -
25/07:00pm 18.0 SE 4 5 1011.9 - 1.0 - Partly cloudy 10 - - - -
25/06:30pm 18.3 SE 5 7 1011.8 - 1.0 - Partly cloudy 10 - - - -
25/06:24pm 18.3 SE 6 7 1011.7 - 1.0 - Partly cloudy 10 - - - -
25/06:00pm 18.3 SE 6 7 1011.6 - 1.0 - Cloudy 10 - - - -
25/05:30pm 18.4 SE 6 8 1011.6 - 1.0 - Partly cloudy 10 - - - -
25/05:00pm 18.3 SE 7 10 1011.5 - 1.0 - Cloudy 10 - - - -
25/04:30pm 18.1 ESE 8 10 1011.6 - 1.0 - Cloudy 10 - - - -
25/04:00pm 17.8 SE 9 13 1011.7 - 1.0 - Cloudy 10 - - - -
25/03:30pm 17.9 ESE 9 12 1011.9 - 1.0 - Cloudy 10 - - - -
25/03:00pm 17.0 ESE 8 11 1012.2 - 1.0 - Cloudy 10 - - - -
25/02:30pm 16.7 ESE 7 10 1012.5 - 1.0 - Cloudy 10 - - - -
25/02:00pm 16.4 ESE 7 10 1012.5 - 1.0 - Cloudy 10 - - - -
25/01:30pm 16.2 ESE 8 11 1012.5 - 1.0 - Cloudy 10 - - - -

Other Formats:

Comma delimited format used in spreadsheet applications
http://www.bom.gov.au/fwo/IDT60701/IDT60701.95957.axf

JavaScript Object Notation format (JSON) in row-major order
http://www.bom.gov.au/fwo/IDT60701/IDT60701.95957.json